sensor_id;sensor_type;location;lat;lon;timestamp;temperature;humidity
9437;DHT22;4757;59.334;18.034;2023-04-06T12:54:24;6.40;99.90
9437;DHT22;4757;59.334;18.034;2023-04-06T12:57:10;6.00;99.90
9437;DHT22;4757;59.334;18.034;2023-04-06T12:59:37;6.00;99.90
9437;DHT22;4757;59.334;18.034;2023-04-06T13:02:19;5.70;99.90
9437;DHT22;4757;59.334;18.034;2023-04-06T13:05:05;5.60;99.90
9437;DHT22;4757;59.334;18.034;2023-04-06T13:07:52;5.70;99.90
9437;DHT22;4757;59.334;18.034;2023-04-06T13:19:36;5.60;99.90
9437;DHT22;4757;59.334;18.034;2023-04-06T13:25:00;5.70;99.90
9437;DHT22;4757;59.334;18.034;2023-04-06T13:27:44;5.80;99.90
9437;DHT22;4757;59.334;18.034;2023-04-06T13:30:28;5.80;99.90
9437;DHT22;4757;59.334;18.034;2023-04-06T13:36:22;6.00;99.90
9437;DHT22;4757;59.334;18.034;2023-04-06T20:20:54;2.10;99.90
9437;DHT22;4757;59.334;18.034;2023-04-06T20:23:22;2.10;99.90
9437;DHT22;4757;59.334;18.034;2023-04-06T20:25:57;2.10;99.90
9437;DHT22;4757;59.334;18.034;2023-04-06T20:28:27;2.00;99.90
9437;DHT22;4757;59.334;18.034;2023-04-06T20:30:56;2.20;99.90
9437;DHT22;4757;59.334;18.034;2023-04-06T20:33:27;2.00;99.90
9437;DHT22;4757;59.334;18.034;2023-04-06T20:35:56;2.10;99.90
9437;DHT22;4757;59.334;18.034;2023-04-06T20:38:27;2.10;99.90
9437;DHT22;4757;59.334;18.034;2023-04-06T20:40:57;2.00;99.90
9437;DHT22;4757;59.334;18.034;2023-04-06T20:43:26;2.00;99.90
9437;DHT22;4757;59.334;18.034;2023-04-06T20:45:56;2.00;99.90
9437;DHT22;4757;59.334;18.034;2023-04-06T20:48:28;1.90;99.90
9437;DHT22;4757;59.334;18.034;2023-04-06T20:51:03;1.90;99.90
9437;DHT22;4757;59.334;18.034;2023-04-06T20:53:34;1.90;99.90
9437;DHT22;4757;59.334;18.034;2023-04-06T20:56:04;1.90;99.90
9437;DHT22;4757;59.334;18.034;2023-04-06T20:58:33;1.80;99.90
9437;DHT22;4757;59.334;18.034;2023-04-06T21:01:00;1.80;99.90
9437;DHT22;4757;59.334;18.034;2023-04-06T21:03:31;1.90;99.90
9437;DHT22;4757;59.334;18.034;2023-04-06T21:06:02;1.90;99.90
9437;DHT22;4757;59.334;18.034;2023-04-06T21:08:29;1.90;99.90
9437;DHT22;4757;59.334;18.034;2023-04-06T21:10:57;1.90;99.90
9437;DHT22;4757;59.334;18.034;2023-04-06T21:13:26;1.90;99.90
9437;DHT22;4757;59.334;18.034;2023-04-06T21:18:31;1.90;99.90
9437;DHT22;4757;59.334;18.034;2023-04-06T21:21:01;1.80;99.90
9437;DHT22;4757;59.334;18.034;2023-04-06T21:23:28;1.90;99.90
9437;DHT22;4757;59.334;18.034;2023-04-06T21:25:55;1.90;99.90
9437;DHT22;4757;59.334;18.034;2023-04-06T21:28:26;1.70;99.90
9437;DHT22;4757;59.334;18.034;2023-04-06T21:30:59;1.70;99.90
9437;DHT22;4757;59.334;18.034;2023-04-06T21:33:30;1.80;99.90
9437;DHT22;4757;59.334;18.034;2023-04-06T21:36:06;1.80;99.90
9437;DHT22;4757;59.334;18.034;2023-04-06T21:38:35;1.70;99.90
9437;DHT22;4757;59.334;18.034;2023-04-06T21:41:04;1.70;99.90
9437;DHT22;4757;59.334;18.034;2023-04-06T21:43:33;1.80;99.90
9437;DHT22;4757;59.334;18.034;2023-04-06T21:46:04;1.60;99.90
9437;DHT22;4757;59.334;18.034;2023-04-06T21:51:05;1.80;99.90
9437;DHT22;4757;59.334;18.034;2023-04-06T21:53:33;1.80;99.90
9437;DHT22;4757;59.334;18.034;2023-04-06T21:56:00;1.70;99.90
9437;DHT22;4757;59.334;18.034;2023-04-06T21:58:42;1.70;99.90
9437;DHT22;4757;59.334;18.034;2023-04-06T22:01:12;1.60;99.90
9437;DHT22;4757;59.334;18.034;2023-04-06T22:03:39;1.50;99.90
9437;DHT22;4757;59.334;18.034;2023-04-06T22:06:07;1.50;99.90
9437;DHT22;4757;59.334;18.034;2023-04-06T22:08:34;1.50;99.90
9437;DHT22;4757;59.334;18.034;2023-04-06T22:11:06;1.50;99.90
9437;DHT22;4757;59.334;18.034;2023-04-06T22:13:34;1.60;99.90
9437;DHT22;4757;59.334;18.034;2023-04-06T22:16:02;1.70;99.90
9437;DHT22;4757;59.334;18.034;2023-04-06T22:18:37;1.50;99.90
9437;DHT22;4757;59.334;18.034;2023-04-06T22:21:13;1.50;99.90
9437;DHT22;4757;59.334;18.034;2023-04-06T22:23:40;1.50;99.90
9437;DHT22;4757;59.334;18.034;2023-04-06T22:26:09;1.50;99.90
9437;DHT22;4757;59.334;18.034;2023-04-06T22:28:37;1.50;99.90
9437;DHT22;4757;59.334;18.034;2023-04-06T22:31:04;1.50;99.90
9437;DHT22;4757;59.334;18.034;2023-04-06T22:33:31;1.50;99.90
9437;DHT22;4757;59.334;18.034;2023-04-06T22:35:58;1.50;99.90
9437;DHT22;4757;59.334;18.034;2023-04-06T22:38:25;1.50;99.90
9437;DHT22;4757;59.334;18.034;2023-04-06T22:40:52;1.40;99.90
9437;DHT22;4757;59.334;18.034;2023-04-06T22:43:19;1.50;99.90
9437;DHT22;4757;59.334;18.034;2023-04-06T22:45:46;1.40;99.90
9437;DHT22;4757;59.334;18.034;2023-04-06T22:48:13;1.40;99.90
9437;DHT22;4757;59.334;18.034;2023-04-06T22:50:40;1.40;99.90
9437;DHT22;4757;59.334;18.034;2023-04-06T22:53:07;1.50;99.90
9437;DHT22;4757;59.334;18.034;2023-04-06T22:55:34;1.50;99.90
9437;DHT22;4757;59.334;18.034;2023-04-06T22:58:04;1.40;99.90
9437;DHT22;4757;59.334;18.034;2023-04-06T23:00:32;1.50;99.90
9437;DHT22;4757;59.334;18.034;2023-04-06T23:02:59;1.50;99.90
9437;DHT22;4757;59.334;18.034;2023-04-06T23:05:27;1.40;99.90
9437;DHT22;4757;59.334;18.034;2023-04-06T23:07:54;1.40;99.90
9437;DHT22;4757;59.334;18.034;2023-04-06T23:10:21;1.50;99.90
9437;DHT22;4757;59.334;18.034;2023-04-06T23:12:48;1.60;99.90
9437;DHT22;4757;59.334;18.034;2023-04-06T23:15:15;1.50;99.90
9437;DHT22;4757;59.334;18.034;2023-04-06T23:17:42;1.50;99.90
9437;DHT22;4757;59.334;18.034;2023-04-06T23:20:09;1.60;99.90
9437;DHT22;4757;59.334;18.034;2023-04-06T23:22:37;1.60;99.90
9437;DHT22;4757;59.334;18.034;2023-04-06T23:25:04;1.60;99.90
9437;DHT22;4757;59.334;18.034;2023-04-06T23:27:33;1.70;99.90
9437;DHT22;4757;59.334;18.034;2023-04-06T23:30:00;1.70;99.90
9437;DHT22;4757;59.334;18.034;2023-04-06T23:32:27;1.70;99.90
9437;DHT22;4757;59.334;18.034;2023-04-06T23:34:54;1.70;99.90
9437;DHT22;4757;59.334;18.034;2023-04-06T23:37:21;1.60;99.90
9437;DHT22;4757;59.334;18.034;2023-04-06T23:39:48;1.60;99.90
9437;DHT22;4757;59.334;18.034;2023-04-06T23:42:16;1.60;99.90
9437;DHT22;4757;59.334;18.034;2023-04-06T23:44:43;1.60;99.90
9437;DHT22;4757;59.334;18.034;2023-04-06T23:47:10;1.50;99.90
9437;DHT22;4757;59.334;18.034;2023-04-06T23:49:37;1.60;99.90
9437;DHT22;4757;59.334;18.034;2023-04-06T23:52:04;1.70;99.90
9437;DHT22;4757;59.334;18.034;2023-04-06T23:54:55;1.70;99.90
9437;DHT22;4757;59.334;18.034;2023-04-06T23:57:29;1.70;99.90
